Time;durP1;ratioP1;P1;durP2;ratioP2;P2;SDS_P1;SDS_P2;PMS_P1;PMS_P2;Temp;Humidity;BMP_temperature;BMP_pressure;BME280_temperature;BME280_humidity;BME280_pressure;Samples;Min_cycle;Max_cycle;Signal;HPM_P1;HPM_P2
2022/01/18 00:00:30;;;;;;;2.00;1.90;;;5.20;99.90;;;;;;5054481;28;20202;-64
2022/01/18 00:02:58;;;;;;;2.07;1.97;;;5.20;99.90;;;;;;5054827;28;20224;-65
2022/01/18 00:05:27;;;;;;;1.90;1.80;;;5.10;99.90;;;;;;5055772;28;20223;-64
2022/01/18 00:07:54;;;;;;;2.17;2.07;;;5.20;99.90;;;;;;5054811;28;20200;-64
2022/01/18 00:10:23;;;;;;;2.00;1.90;;;5.10;99.90;;;;;;5055103;28;20208;-65
2022/01/18 00:13:07;;;;;;;1.83;1.73;;;5.10;99.90;;;;;;5056323;28;20216;-64
2022/01/18 00:15:42;;;;;;;2.00;1.90;;;5.10;99.90;;;;;;5052709;28;20215;-64
2022/01/18 00:18:12;;;;;;;2.20;2.10;;;5.10;99.90;;;;;;5054618;28;20196;-66
2022/01/18 00:20:55;;;;;;;2.20;2.10;;;5.10;99.90;;;;;;5055290;28;20242;-65
2022/01/18 00:23:22;;;;;;;2.20;2.10;;;5.10;99.90;;;;;;5056899;28;20254;-66
2022/01/18 00:25:53;;;;;;;1.53;1.53;;;5.00;99.90;;;;;;5054831;28;20220;-66
2022/01/18 00:28:22;;;;;;;2.20;2.10;;;5.00;99.90;;;;;;5051054;28;20297;-65
2022/01/18 00:36:37;;;;;;;1.90;1.80;;;5.10;99.90;;;;;;5029980;28;20192;-65
2022/01/18 00:39:06;;;;;;;1.80;1.70;;;5.00;99.90;;;;;;5043033;28;20227;-64
2022/01/18 00:41:33;;;;;;;1.97;1.87;;;5.10;99.90;;;;;;5038776;28;20207;-65
2022/01/18 00:44:02;;;;;;;1.77;1.70;;;5.10;99.90;;;;;;5047457;28;20227;-65
2022/01/18 00:46:29;;;;;;;1.90;1.80;;;5.10;99.90;;;;;;5051826;28;20262;-65
2022/01/18 00:49:00;;;;;;;2.20;2.10;;;5.00;99.90;;;;;;5051326;28;20210;-65
2022/01/18 00:51:27;;;;;;;2.20;2.10;;;5.00;99.90;;;;;;5049905;28;20213;-64
2022/01/18 00:53:56;;;;;;;1.90;1.80;;;5.00;99.90;;;;;;5052180;28;20224;-64
2022/01/18 00:56:26;;;;;;;1.90;1.80;;;4.90;99.90;;;;;;5044699;28;20682;-65
2022/01/18 00:58:53;;;;;;;1.67;1.67;;;5.00;99.90;;;;;;5058876;28;20211;-66
2022/01/18 01:01:24;;;;;;;1.70;1.67;;;5.00;99.90;;;;;;5062493;28;20239;-65
2022/01/18 01:03:55;;;;;;;2.07;1.97;;;5.00;99.90;;;;;;5051109;28;20254;-65
2022/01/18 01:06:22;;;;;;;2.00;1.90;;;4.90;99.90;;;;;;5046790;28;20196;-64
2022/01/18 01:08:49;;;;;;;1.93;1.83;;;5.00;99.90;;;;;;5043673;28;20206;-64
2022/01/18 01:11:17;;;;;;;1.90;1.80;;;5.00;99.90;;;;;;5043250;28;20208;-65
2022/01/18 01:13:48;;;;;;;2.00;1.90;;;5.00;99.90;;;;;;5040467;28;20745;-65
2022/01/18 01:16:38;;;;;;;1.80;1.70;;;5.00;99.90;;;;;;5044099;28;20227;-64
2022/01/18 01:19:22;;;;;;;2.10;2.00;;;5.00;99.90;;;;;;5038417;28;20215;-66
2022/01/18 01:36:08;;;;;;;1.90;1.80;;;5.20;99.90;;;;;;4984989;28;20244;-66
2022/01/18 01:44:07;;;;;;;1.90;1.80;;;5.20;99.90;;;;;;5021412;28;20228;-64
2022/01/18 01:46:36;;;;;;;1.70;1.60;;;5.00;99.90;;;;;;5016931;28;20233;-66
2022/01/18 01:49:07;;;;;;;1.57;1.57;;;5.10;99.90;;;;;;5028234;28;20216;-66
2022/01/18 01:51:35;;;;;;;1.97;1.87;;;5.10;99.90;;;;;;5022311;28;20673;-66
2022/01/18 01:54:06;;;;;;;1.90;1.80;;;5.00;99.90;;;;;;5025348;28;20247;-63
2022/01/18 01:56:34;;;;;;;2.00;1.90;;;5.00;99.90;;;;;;5025784;28;20209;-65
2022/01/18 01:59:02;;;;;;;1.80;1.70;;;5.00;99.90;;;;;;5035470;28;20243;-65
2022/01/18 02:01:29;;;;;;;1.80;1.70;;;4.90;99.90;;;;;;5032267;28;20213;-65
2022/01/18 02:03:57;;;;;;;1.87;1.77;;;4.90;99.90;;;;;;5038215;28;20311;-65
2022/01/18 02:06:25;;;;;;;1.60;1.60;;;4.90;99.90;;;;;;5030957;28;20205;-64
2022/01/18 02:08:53;;;;;;;1.83;1.73;;;4.90;99.90;;;;;;5015885;28;20308;-63
2022/01/18 02:11:20;;;;;;;1.63;1.63;;;4.90;99.90;;;;;;5019729;28;20293;-65
2022/01/18 02:13:50;;;;;;;1.80;1.70;;;5.00;99.90;;;;;;5024372;28;20225;-65
2022/01/18 02:21:45;;;;;;;1.80;1.70;;;5.00;99.90;;;;;;5022770;28;20672;-65
2022/01/18 02:21:52;;;;;;;1.77;1.67;;;5.10;99.90;;;;;;5039851;28;20220;-64
2022/01/18 02:24:21;;;;;;;1.70;1.60;;;5.10;99.90;;;;;;5034139;28;20261;-65
2022/01/18 02:26:48;;;;;;;1.60;1.60;;;5.10;99.90;;;;;;5031383;28;20240;-62
2022/01/18 02:29:16;;;;;;;1.70;1.60;;;5.10;99.90;;;;;;5021850;28;20305;-64
2022/01/18 02:31:43;;;;;;;1.80;1.70;;;5.10;99.90;;;;;;5023823;28;20307;-64
2022/01/18 02:34:11;;;;;;;1.73;1.63;;;5.10;99.90;;;;;;5023282;28;20201;-65
2022/01/18 02:36:39;;;;;;;1.50;1.50;;;5.10;99.90;;;;;;5025123;28;20235;-64
2022/01/18 02:39:09;;;;;;;1.60;1.60;;;5.10;99.90;;;;;;5023256;28;20639;-64
2022/01/18 02:41:37;;;;;;;1.90;1.80;;;5.00;99.90;;;;;;5023101;28;20224;-66
2022/01/18 02:44:06;;;;;;;1.90;1.80;;;5.10;99.90;;;;;;5017939;28;20313;-65
2022/01/18 02:46:34;;;;;;;1.53;1.50;;;5.00;99.90;;;;;;5017164;28;20642;-65
2022/01/18 02:49:04;;;;;;;1.40;1.40;;;5.10;99.90;;;;;;5023162;28;20280;-64
2022/01/18 02:51:31;;;;;;;1.77;1.67;;;5.10;99.90;;;;;;5031794;28;20236;-65
2022/01/18 02:54:01;;;;;;;1.40;1.40;;;5.10;99.90;;;;;;5031013;28;20208;-64
2022/01/18 02:56:32;;;;;;;1.90;1.80;;;5.10;99.90;;;;;;5031543;28;20215;-64
2022/01/18 02:59:06;;;;;;;1.70;1.60;;;5.10;99.90;;;;;;5031099;28;20642;-65
2022/01/18 03:04:17;;;;;;;1.77;1.67;;;5.00;99.90;;;;;;5035081;28;20231;-63
2022/01/18 03:06:44;;;;;;;1.60;1.60;;;5.00;99.90;;;;;;5034937;28;20698;-63
2022/01/18 03:09:11;;;;;;;1.43;1.43;;;5.00;99.90;;;;;;5034418;28;20395;-65
2022/01/18 03:11:39;;;;;;;1.60;1.60;;;5.00;99.90;;;;;;5034751;28;20247;-65
2022/01/18 03:14:06;;;;;;;1.63;1.53;;;5.00;99.90;;;;;;5030761;28;20210;-64
2022/01/18 03:16:34;;;;;;;1.40;1.40;;;5.00;99.90;;;;;;5030900;28;20307;-65
2022/01/18 03:19:01;;;;;;;1.83;1.73;;;5.00;99.90;;;;;;5030767;28;20319;-64
2022/01/18 03:21:28;;;;;;;1.27;1.27;;;5.10;99.90;;;;;;5030872;28;20282;-63
2022/01/18 03:24:10;;;;;;;1.50;1.50;;;5.10;99.90;;;;;;5030373;28;20227;-66
2022/01/18 03:28:04;;;;;;;1.43;1.43;;;5.10;99.90;;;;;;5032382;28;20188;-64
2022/01/18 03:29:25;;;;;;;1.40;1.40;;;5.10;99.90;;;;;;5031739;28;20310;-65
2022/01/18 03:31:52;;;;;;;1.40;1.40;;;5.10;99.90;;;;;;5032228;28;20201;-66
2022/01/18 03:34:19;;;;;;;1.37;1.37;;;5.10;99.90;;;;;;5032411;28;20283;-63
2022/01/18 03:36:46;;;;;;;1.30;1.30;;;5.10;99.90;;;;;;5033248;28;20246;-63
2022/01/18 03:39:13;;;;;;;1.47;1.47;;;5.10;99.90;;;;;;5031508;28;20228;-65
2022/01/18 03:41:41;;;;;;;1.40;1.40;;;5.10;99.90;;;;;;5030577;28;20296;-63
2022/01/18 03:44:08;;;;;;;1.40;1.40;;;5.10;99.90;;;;;;5030492;28;20232;-65
2022/01/18 03:46:37;;;;;;;1.77;1.67;;;5.00;99.90;;;;;;5030780;28;20593;-65
2022/01/18 03:49:05;;;;;;;1.70;1.60;;;5.10;99.90;;;;;;5030454;28;20232;-65
2022/01/18 03:51:33;;;;;;;1.80;1.70;;;5.10;99.90;;;;;;5030548;28;20635;-63
2022/01/18 03:54:00;;;;;;;1.40;1.40;;;5.10;99.90;;;;;;5030371;28;20200;-64
2022/01/18 03:56:28;;;;;;;1.50;1.40;;;5.10;99.90;;;;;;5033092;28;20251;-65
2022/01/18 03:58:56;;;;;;;1.60;1.50;;;5.10;99.90;;;;;;5034040;28;20220;-64
2022/01/18 04:01:23;;;;;;;1.50;1.50;;;5.10;99.90;;;;;;5034070;28;20310;-65
2022/01/18 04:03:50;;;;;;;1.40;1.40;;;5.10;99.90;;;;;;5033915;28;20320;-65
2022/01/18 04:06:17;;;;;;;1.43;1.43;;;5.10;99.90;;;;;;5034210;28;20295;-65
2022/01/18 04:08:44;;;;;;;1.40;1.40;;;5.10;99.90;;;;;;5033709;28;20229;-65
2022/01/18 04:11:10;;;;;;;1.40;1.40;;;5.20;99.90;;;;;;5034899;28;20660;-66
2022/01/18 04:13:37;;;;;;;1.60;1.60;;;5.10;99.90;;;;;;5036421;28;20232;-66
2022/01/18 04:16:06;;;;;;;1.60;1.50;;;5.10;99.90;;;;;;5034500;28;20750;-64
2022/01/18 04:18:47;;;;;;;1.50;1.40;;;5.10;99.90;;;;;;5035787;28;20260;-64
2022/01/18 04:27:01;;;;;;;1.40;1.40;;;5.00;99.90;;;;;;5034520;28;20255;-63
2022/01/18 04:29:28;;;;;;;1.40;1.40;;;5.00;99.90;;;;;;5034423;28;20228;-63
2022/01/18 04:31:56;;;;;;;1.40;1.40;;;5.00;99.90;;;;;;5033843;28;20208;-64
2022/01/18 04:34:23;;;;;;;1.40;1.40;;;5.10;99.90;;;;;;5033869;28;20288;-65
2022/01/18 04:36:50;;;;;;;1.50;1.50;;;5.00;99.90;;;;;;5034183;28;20247;-64
2022/01/18 04:39:18;;;;;;;1.50;1.50;;;5.00;99.90;;;;;;5034474;28;20312;-64
2022/01/18 04:41:46;;;;;;;1.70;1.60;;;5.00;99.90;;;;;;5034620;28;20275;-65
2022/01/18 04:49:58;;;;;;;1.60;1.50;;;5.00;99.90;;;;;;4956007;29;20336;-64
2022/01/18 04:52:25;;;;;;;1.50;1.50;;;4.90;99.90;;;;;;4953475;28;20203;-65
2022/01/18 04:55:00;;;;;;;1.43;1.43;;;5.00;99.90;;;;;;4987128;28;20211;-64
2022/01/18 05:00:12;;;;;;;1.50;1.50;;;4.90;99.90;;;;;;5033393;28;20262;-62
2022/01/18 05:02:41;;;;;;;1.30;1.30;;;4.90;99.90;;;;;;5033415;28;20287;-64
2022/01/18 05:05:10;;;;;;;1.37;1.37;;;4.90;99.90;;;;;;5033955;28;20291;-64
2022/01/18 05:07:38;;;;;;;1.20;1.20;;;5.00;99.90;;;;;;5032720;28;20211;-65
2022/01/18 05:10:06;;;;;;;1.40;1.40;;;5.00;99.90;;;;;;5033430;28;20318;-65
2022/01/18 05:12:42;;;;;;;1.40;1.40;;;4.90;99.90;;;;;;5032592;28;20728;-64
2022/01/18 05:15:33;;;;;;;1.70;1.60;;;5.00;99.90;;;;;;5032569;28;20208;-64
2022/01/18 05:18:56;;;;;;;1.27;1.27;;;5.00;99.90;;;;;;5032545;28;20259;-65
2022/01/18 05:21:13;;;;;;;1.37;1.37;;;5.00;99.90;;;;;;5032472;28;20249;-65
2022/01/18 05:23:40;;;;;;;1.40;1.40;;;4.90;99.90;;;;;;5032328;28;20323;-65
2022/01/18 05:26:07;;;;;;;1.30;1.30;;;4.90;99.90;;;;;;5032776;28;20636;-63
2022/01/18 05:28:34;;;;;;;1.60;1.50;;;4.90;99.90;;;;;;5033483;28;20468;-64
2022/01/18 05:31:01;;;;;;;1.20;1.20;;;4.90;99.90;;;;;;5035206;28;20626;-62
2022/01/18 05:33:29;;;;;;;1.83;1.73;;;5.00;99.90;;;;;;5033279;28;20310;-61
2022/01/18 05:35:56;;;;;;;1.70;1.60;;;6.00;99.90;;;;;;5032830;28;20211;-62
2022/01/18 05:38:23;;;;;;;1.40;1.40;;;7.80;99.90;;;;;;5033043;28;20215;-62
2022/01/18 05:40:50;;;;;;;1.40;1.40;;;9.00;99.90;;;;;;5033534;28;20320;-63
2022/01/18 05:43:17;;;;;;;1.40;1.40;;;8.70;99.90;;;;;;5031936;28;20595;-64
2022/01/18 05:45:44;;;;;;;1.40;1.40;;;7.80;99.90;;;;;;5032025;28;20787;-64
2022/01/18 05:48:11;;;;;;;1.23;1.23;;;7.10;99.90;;;;;;5032700;28;20675;-65
2022/01/18 05:50:39;;;;;;;1.40;1.40;;;6.60;99.90;;;;;;5032650;28;20311;-64
2022/01/18 05:53:06;;;;;;;1.53;1.50;;;6.20;99.90;;;;;;5032555;28;20292;-64
2022/01/18 05:55:33;;;;;;;1.40;1.40;;;5.90;99.90;;;;;;5032799;28;20343;-64
2022/01/18 05:58:00;;;;;;;1.50;1.40;;;5.70;99.90;;;;;;5032556;28;20358;-64
2022/01/18 06:00:30;;;;;;;1.70;1.60;;;5.60;99.90;;;;;;5031639;28;20228;-64
2022/01/18 06:03:03;;;;;;;1.50;1.50;;;5.60;99.90;;;;;;5027303;28;20196;-64
2022/01/18 06:08:16;;;;;;;1.50;1.50;;;5.30;99.90;;;;;;5012683;28;20193;-64
2022/01/18 06:10:43;;;;;;;1.30;1.30;;;5.10;99.90;;;;;;5012268;28;20599;-65
2022/01/18 06:13:10;;;;;;;1.30;1.30;;;5.10;99.90;;;;;;5011831;28;20296;-64
2022/01/18 06:15:37;;;;;;;1.70;1.60;;;5.00;99.90;;;;;;5015679;28;20248;-64
2022/01/18 06:18:04;;;;;;;1.50;1.50;;;4.90;99.90;;;;;;5014320;28;20252;-63
2022/01/18 06:20:31;;;;;;;1.50;1.50;;;4.90;99.90;;;;;;5021712;28;20283;-64
2022/01/18 06:22:58;;;;;;;1.70;1.60;;;4.80;99.90;;;;;;5027853;28;20200;-65
2022/01/18 06:25:27;;;;;;;1.70;1.60;;;4.80;99.90;;;;;;5030929;28;20311;-65
2022/01/18 06:27:54;;;;;;;1.53;1.53;;;4.70;99.90;;;;;;5036228;28;20239;-64
2022/01/18 06:30:21;;;;;;;1.80;1.70;;;4.70;99.90;;;;;;5039344;28;20236;-65
2022/01/18 06:32:48;;;;;;;1.47;1.40;;;4.70;99.90;;;;;;5040661;28;20220;-65
2022/01/18 06:35:17;;;;;;;1.40;1.40;;;4.70;99.90;;;;;;5037097;28;20211;-65
2022/01/18 06:37:44;;;;;;;1.40;1.40;;;4.70;99.90;;;;;;5031901;28;20201;-65
2022/01/18 06:40:12;;;;;;;1.53;1.43;;;4.60;99.90;;;;;;5031179;28;20324;-64
2022/01/18 06:42:40;;;;;;;1.60;1.50;;;4.60;99.90;;;;;;5026369;28;20211;-64
2022/01/18 06:45:09;;;;;;;1.70;1.60;;;4.60;99.90;;;;;;5031329;28;20315;-64
2022/01/18 06:47:36;;;;;;;1.50;1.50;;;4.60;99.90;;;;;;5029385;28;20681;-64
2022/01/18 06:50:04;;;;;;;1.57;1.50;;;4.60;99.90;;;;;;5024550;28;20230;-64
2022/01/18 06:52:31;;;;;;;1.60;1.60;;;4.60;99.90;;;;;;5030295;28;20648;-64
2022/01/18 06:54:58;;;;;;;1.50;1.50;;;4.60;99.90;;;;;;5029502;28;20647;-64
2022/01/18 06:57:25;;;;;;;1.70;1.60;;;4.60;99.90;;;;;;5024862;28;20292;-64
2022/01/18 06:59:53;;;;;;;1.50;1.50;;;4.60;99.90;;;;;;5032409;28;20278;-63
2022/01/18 07:02:20;;;;;;;1.63;1.60;;;4.60;99.90;;;;;;5032378;28;20204;-65
2022/01/18 07:04:47;;;;;;;1.67;1.60;;;4.60;99.90;;;;;;5032708;28;20259;-64
2022/01/18 07:07:14;;;;;;;1.27;1.27;;;4.70;99.90;;;;;;5033567;28;20300;-64
2022/01/18 07:09:41;;;;;;;1.80;1.70;;;4.70;99.90;;;;;;5027605;28;20728;-63
2022/01/18 07:12:11;;;;;;;1.70;1.60;;;4.70;99.90;;;;;;5026666;28;20196;-65
2022/01/18 07:14:38;;;;;;;1.70;1.60;;;4.70;99.90;;;;;;5022000;28;20224;-65
2022/01/18 07:17:07;;;;;;;1.93;1.83;;;4.70;99.90;;;;;;5021429;28;20304;-62
2022/01/18 07:19:34;;;;;;;1.57;1.57;;;4.60;99.90;;;;;;5016560;28;20268;-66
2022/01/18 07:22:01;;;;;;;1.60;1.60;;;4.60;99.90;;;;;;5020352;28;20314;-65
2022/01/18 07:24:40;;;;;;;1.80;1.70;;;4.60;99.90;;;;;;5020893;28;20304;-65
2022/01/18 07:27:08;;;;;;;1.50;1.50;;;4.60;99.90;;;;;;5015886;28;20220;-66
2022/01/18 07:32:09;;;;;;;1.40;1.40;;;4.70;99.90;;;;;;5001620;28;20317;-62
2022/01/18 07:34:40;;;;;;;1.93;1.83;;;4.70;99.90;;;;;;5005679;28;20324;-63
2022/01/18 07:37:09;;;;;;;1.50;1.50;;;4.80;99.90;;;;;;5002719;28;20276;-62
2022/01/18 07:39:36;;;;;;;1.60;1.50;;;4.70;99.90;;;;;;5001189;28;20219;-63
2022/01/18 07:42:03;;;;;;;1.43;1.40;;;4.60;99.90;;;;;;5006186;28;20217;-63
2022/01/18 07:44:31;;;;;;;1.33;1.33;;;4.70;99.90;;;;;;5012004;28;20726;-63
2022/01/18 07:46:58;;;;;;;1.37;1.37;;;4.70;99.90;;;;;;5011486;28;20608;-63
2022/01/18 07:49:27;;;;;;;1.70;1.60;;;4.70;99.90;;;;;;5012499;28;20300;-63
2022/01/18 07:51:53;;;;;;;1.40;1.40;;;4.70;99.90;;;;;;5011354;28;20316;-63
2022/01/18 07:54:20;;;;;;;1.40;1.40;;;4.70;99.90;;;;;;5005155;28;20281;-62
2022/01/18 07:56:47;;;;;;;1.30;1.30;;;4.80;99.90;;;;;;5004444;28;20213;-63
2022/01/18 07:59:14;;;;;;;1.40;1.40;;;4.80;99.90;;;;;;5002636;28;20559;-62
2022/01/18 08:01:42;;;;;;;1.60;1.50;;;4.80;99.90;;;;;;5002582;28;20316;-62
2022/01/18 08:04:09;;;;;;;1.47;1.47;;;4.80;99.90;;;;;;5003733;28;20233;-63
2022/01/18 08:06:38;;;;;;;1.40;1.40;;;4.80;99.90;;;;;;5002832;28;20210;-61
2022/01/18 08:09:05;;;;;;;1.60;1.37;;;4.80;99.90;;;;;;5006253;28;20215;-62
2022/01/18 08:11:32;;;;;;;1.70;1.60;;;4.80;99.90;;;;;;5004857;28;20224;-61
2022/01/18 08:14:00;;;;;;;1.63;1.60;;;4.80;99.90;;;;;;5009430;28;20198;-61
2022/01/18 08:19:13;;;;;;;1.80;1.70;;;4.80;99.90;;;;;;5004719;28;20221;-62
2022/01/18 08:21:41;;;;;;;1.70;1.60;;;4.80;99.90;;;;;;4997873;28;20308;-62
2022/01/18 08:24:08;;;;;;;1.37;1.37;;;4.80;99.90;;;;;;4997507;28;20260;-61
2022/01/18 08:26:35;;;;;;;1.60;1.60;;;4.80;99.90;;;;;;4997411;28;20288;-61
2022/01/18 08:29:02;;;;;;;1.60;1.50;;;4.80;99.90;;;;;;5009950;28;20730;-60
2022/01/18 08:31:29;;;;;;;1.83;1.73;;;4.90;99.90;;;;;;5007205;28;20270;-62
2022/01/18 08:33:55;;;;;;;1.63;1.60;;;4.90;99.90;;;;;;5016205;28;20289;-62
2022/01/18 08:36:22;;;;;;;1.57;1.50;;;4.90;99.90;;;;;;5020555;28;20224;-61
2022/01/18 08:38:52;;;;;;;1.50;1.50;;;4.90;99.90;;;;;;5012394;28;20212;-62
2022/01/18 08:41:19;;;;;;;1.70;1.60;;;5.00;99.90;;;;;;5013763;28;20225;-61
2022/01/18 08:43:45;;;;;;;1.50;1.50;;;5.10;99.90;;;;;;5014673;28;20202;-62
2022/01/18 08:46:12;;;;;;;1.50;1.50;;;5.10;99.90;;;;;;5009586;28;20298;-62
2022/01/18 08:48:40;;;;;;;1.73;1.67;;;5.20;99.90;;;;;;5006497;28;20237;-64
2022/01/18 08:51:07;;;;;;;1.57;1.57;;;5.30;99.90;;;;;;5005581;28;20240;-62
2022/01/18 08:53:35;;;;;;;1.40;1.40;;;5.20;99.90;;;;;;5005414;28;20219;-63
2022/01/18 08:56:04;;;;;;;1.80;1.70;;;5.20;99.90;;;;;;5015189;28;20260;-63
2022/01/18 08:58:32;;;;;;;1.60;1.50;;;5.20;99.90;;;;;;5020647;28;20220;-63
2022/01/18 09:00:59;;;;;;;1.40;1.40;;;5.10;99.90;;;;;;5013842;28;20250;-62
2022/01/18 09:03:26;;;;;;;1.40;1.40;;;5.10;99.90;;;;;;5016489;28;20237;-62
2022/01/18 09:05:53;;;;;;;1.30;1.30;;;5.20;99.90;;;;;;5025868;28;20325;-62
2022/01/18 09:08:20;;;;;;;1.30;1.30;;;5.10;99.90;;;;;;5020766;28;20210;-63
2022/01/18 09:10:48;;;;;;;1.40;1.40;;;5.30;99.90;;;;;;5018907;28;20221;-62
2022/01/18 09:13:17;;;;;;;1.40;1.30;;;5.40;99.90;;;;;;5020200;28;20260;-62
2022/01/18 09:15:44;;;;;;;1.40;1.40;;;5.20;99.90;;;;;;5015128;28;20233;-64
2022/01/18 09:18:11;;;;;;;1.30;1.30;;;5.20;99.90;;;;;;5013924;28;20292;-63
2022/01/18 09:20:39;;;;;;;1.37;1.37;;;5.20;99.90;;;;;;5011628;28;20226;-64
2022/01/18 09:23:06;;;;;;;1.40;1.40;;;5.30;99.90;;;;;;5013732;28;20240;-62
2022/01/18 09:25:34;;;;;;;1.40;1.40;;;5.20;99.90;;;;;;5011646;28;20221;-61
2022/01/18 09:28:01;;;;;;;1.73;1.63;;;5.20;99.90;;;;;;5008365;28;20288;-61
2022/01/18 09:30:30;;;;;;;1.53;1.47;;;5.20;99.90;;;;;;5003092;28;20306;-62
2022/01/18 09:32:59;;;;;;;2.00;1.90;;;5.20;99.90;;;;;;5005650;28;20626;-62
2022/01/18 09:35:26;;;;;;;1.50;1.50;;;5.20;99.90;;;;;;5006799;28;20694;-61
2022/01/18 09:37:53;;;;;;;1.97;1.87;;;5.30;99.90;;;;;;5005735;28;20209;-62
2022/01/18 09:40:22;;;;;;;1.97;1.87;;;5.40;99.90;;;;;;5006986;28;20308;-63
2022/01/18 09:42:53;;;;;;;2.00;1.90;;;5.40;99.90;;;;;;5006141;28;20201;-62
2022/01/18 09:45:21;;;;;;;2.23;2.13;;;5.40;99.90;;;;;;5003896;28;20273;-62
2022/01/18 09:47:53;;;;;;;2.27;2.17;;;5.40;99.90;;;;;;5006308;28;20305;-62
2022/01/18 09:50:23;;;;;;;2.10;2.00;;;5.50;99.90;;;;;;5008309;28;20221;-62
2022/01/18 09:52:53;;;;;;;2.00;1.90;;;5.60;99.90;;;;;;5004820;28;20292;-64
2022/01/18 09:55:22;;;;;;;1.77;1.70;;;5.70;99.90;;;;;;5008736;28;20209;-62
2022/01/18 09:57:50;;;;;;;1.90;1.80;;;5.70;99.90;;;;;;5010845;28;20220;-63
2022/01/18 10:00:19;;;;;;;1.90;1.80;;;5.80;99.90;;;;;;5010734;28;20225;-63
2022/01/18 10:02:46;;;;;;;1.77;1.67;;;5.80;99.90;;;;;;5008790;28;20212;-63
2022/01/18 10:05:23;;;;;;;1.60;1.50;;;5.90;99.90;;;;;;5007066;28;20308;-63
2022/01/18 10:07:59;;;;;;;1.83;1.73;;;5.90;99.90;;;;;;5010127;28;20229;-63
2022/01/18 10:10:42;;;;;;;1.70;1.60;;;6.00;99.90;;;;;;5015525;28;20749;-63
2022/01/18 10:13:17;;;;;;;1.40;1.40;;;6.10;99.90;;;;;;5010043;28;20197;-62
2022/01/18 10:16:02;;;;;;;1.57;1.50;;;6.20;99.90;;;;;;5010363;28;20524;-62
2022/01/18 10:18:36;;;;;;;1.83;1.73;;;6.20;99.90;;;;;;5011088;28;20263;-61
2022/01/18 10:21:07;;;;;;;1.50;1.50;;;6.30;99.90;;;;;;5016649;28;20220;-62
2022/01/18 10:23:34;;;;;;;1.90;1.80;;;6.40;99.90;;;;;;5020488;28;20688;-62
2022/01/18 10:26:20;;;;;;;1.60;1.60;;;6.40;99.90;;;;;;5024546;28;20235;-62
2022/01/18 10:28:48;;;;;;;1.73;1.63;;;6.50;99.90;;;;;;5018523;28;20257;-63
2022/01/18 10:31:34;;;;;;;2.00;1.90;;;6.60;99.90;;;;;;5018590;28;20291;-63
2022/01/18 10:34:26;;;;;;;2.00;1.90;;;6.70;99.90;;;;;;5013184;28;20209;-62
2022/01/18 10:36:59;;;;;;;1.90;1.80;;;6.90;99.90;;;;;;5013028;28;20205;-63
2022/01/18 10:39:28;;;;;;;1.70;1.60;;;7.00;99.90;;;;;;5012567;28;20205;-62
2022/01/18 10:41:56;;;;;;;1.53;1.53;;;7.10;99.90;;;;;;5010275;28;20235;-62
2022/01/18 10:44:23;;;;;;;1.50;1.50;;;7.30;99.90;;;;;;5011804;28;20675;-63
2022/01/18 10:46:52;;;;;;;1.67;1.63;;;7.40;99.90;;;;;;5004992;28;20205;-62
2022/01/18 10:49:28;;;;;;;1.50;1.50;;;7.40;99.90;;;;;;5000814;28;20755;-63
2022/01/18 10:52:05;;;;;;;1.80;1.70;;;7.50;99.90;;;;;;5006172;28;20288;-61
2022/01/18 10:54:37;;;;;;;2.00;1.90;;;7.50;99.90;;;;;;5004746;28;20217;-62
2022/01/18 10:57:08;;;;;;;1.77;1.67;;;7.30;99.90;;;;;;5007368;28;20205;-61
2022/01/18 10:59:38;;;;;;;1.93;1.83;;;7.40;99.90;;;;;;5010787;28;20207;-61
2022/01/18 11:02:23;;;;;;;1.90;1.80;;;7.30;99.90;;;;;;5007927;28;20263;-61
2022/01/18 11:04:52;;;;;;;1.50;1.50;;;7.30;99.90;;;;;;5009015;28;20232;-62
2022/01/18 11:07:22;;;;;;;1.33;1.33;;;7.20;99.90;;;;;;5011126;28;20205;-63
2022/01/18 11:09:50;;;;;;;1.50;1.50;;;7.30;99.90;;;;;;5004213;28;20194;-61
2022/01/18 11:12:19;;;;;;;1.50;1.40;;;7.40;99.90;;;;;;5010908;28;20213;-62
2022/01/18 11:14:51;;;;;;;1.87;1.77;;;7.40;99.90;;;;;;5011223;28;20232;-64
2022/01/18 11:17:23;;;;;;;2.07;1.97;;;7.40;99.90;;;;;;5007433;28;20676;-63
2022/01/18 11:19:54;;;;;;;2.30;2.20;;;7.50;99.90;;;;;;5006975;28;20223;-63
2022/01/18 11:22:25;;;;;;;1.90;1.80;;;7.50;99.90;;;;;;5007477;28;20194;-64
2022/01/18 11:24:57;;;;;;;1.40;1.40;;;7.50;99.90;;;;;;5009530;28;20644;-62
2022/01/18 11:27:24;;;;;;;1.30;1.30;;;7.60;99.90;;;;;;5012354;28;20197;-63
2022/01/18 11:29:51;;;;;;;1.43;1.40;;;7.70;99.90;;;;;;5004820;28;20330;-62
2022/01/18 11:32:19;;;;;;;1.30;1.30;;;7.80;99.90;;;;;;5005759;28;20635;-64
2022/01/18 11:35:05;;;;;;;1.13;1.13;;;7.90;99.90;;;;;;5008730;28;20209;-62
2022/01/18 11:37:45;;;;;;;1.40;1.30;;;8.00;99.90;;;;;;5012622;28;20263;-62
2022/01/18 11:40:18;;;;;;;1.50;1.40;;;8.10;99.90;;;;;;5015407;28;20600;-63
2022/01/18 11:42:50;;;;;;;1.30;1.30;;;8.10;99.90;;;;;;5017693;28;20228;-63
2022/01/18 11:45:39;;;;;;;1.10;1.10;;;8.00;99.90;;;;;;5027334;28;20218;-62
2022/01/18 11:48:17;;;;;;;1.20;1.20;;;8.00;99.90;;;;;;5015471;28;20209;-64
2022/01/18 11:50:47;;;;;;;1.00;1.00;;;8.20;99.90;;;;;;5017495;28;20626;-62
2022/01/18 11:53:24;;;;;;;1.10;1.10;;;8.30;99.90;;;;;;5016728;28;20269;-63
2022/01/18 11:55:52;;;;;;;0.97;0.90;;;8.40;99.90;;;;;;5017359;28;20236;-63
2022/01/18 11:58:19;;;;;;;0.90;0.90;;;8.40;99.90;;;;;;5019883;28;20239;-63
2022/01/18 12:00:52;;;;;;;1.33;1.23;;;8.50;99.90;;;;;;5017511;28;20229;-64
2022/01/18 12:03:23;;;;;;;1.00;1.00;;;8.40;99.90;;;;;;5009850;28;20835;-62
2022/01/18 12:05:50;;;;;;;1.03;1.03;;;8.40;99.90;;;;;;5011567;28;20228;-62
2022/01/18 12:08:33;;;;;;;1.60;1.50;;;8.50;99.90;;;;;;5009244;28;20582;-65
2022/01/18 12:11:01;;;;;;;1.03;1.03;;;8.50;99.90;;;;;;5010771;28;20696;-63
2022/01/18 12:13:31;;;;;;;1.10;1.10;;;8.30;99.90;;;;;;5014557;28;20296;-63
2022/01/18 12:16:00;;;;;;;1.30;1.20;;;8.20;99.90;;;;;;5010953;28;20198;-62
2022/01/18 12:18:29;;;;;;;1.20;1.20;;;8.20;99.90;;;;;;5015711;28;20288;-63
2022/01/18 12:20:57;;;;;;;1.10;1.10;;;8.20;99.90;;;;;;5014724;28;20611;-62
2022/01/18 12:23:27;;;;;;;1.10;1.10;;;8.30;99.90;;;;;;5014695;28;20237;-63
2022/01/18 12:25:59;;;;;;;0.97;0.97;;;8.30;99.90;;;;;;5017444;28;20324;-61
2022/01/18 12:28:49;;;;;;;1.30;1.30;;;8.30;99.90;;;;;;5017261;28;20229;-62
2022/01/18 12:32:17;;;;;;;1.23;1.23;;;8.40;99.90;;;;;;5015500;28;20293;-61
2022/01/18 12:34:47;;;;;;;1.13;1.03;;;8.30;99.90;;;;;;5012833;28;20201;-61
2022/01/18 12:37:40;;;;;;;0.90;0.90;;;8.30;99.90;;;;;;5018857;28;20209;-61
2022/01/18 12:40:11;;;;;;;0.90;0.90;;;8.30;99.90;;;;;;5015719;28;20252;-63
2022/01/18 12:45:29;;;;;;;1.10;1.10;;;8.40;99.90;;;;;;5006663;28;20224;-61
2022/01/18 12:48:00;;;;;;;0.90;0.90;;;8.40;99.90;;;;;;5005125;28;20556;-63
2022/01/18 12:50:29;;;;;;;0.90;0.90;;;8.40;99.90;;;;;;5006256;28;20279;-63
2022/01/18 12:52:58;;;;;;;0.87;0.87;;;8.50;99.90;;;;;;5007001;28;20860;-65
2022/01/18 12:55:31;;;;;;;0.77;0.77;;;8.60;99.90;;;;;;5014829;28;20208;-62
2022/01/18 12:58:01;;;;;;;1.10;1.10;;;8.60;99.90;;;;;;5014276;28;20216;-62
2022/01/18 13:00:28;;;;;;;1.07;1.07;;;8.70;99.90;;;;;;5015084;28;20223;-63
2022/01/18 13:02:59;;;;;;;1.07;1.07;;;8.70;99.90;;;;;;5020033;28;20304;-63
2022/01/18 13:05:38;;;;;;;0.97;0.97;;;8.70;99.90;;;;;;5023568;28;20199;-64
2022/01/18 13:08:06;;;;;;;0.90;0.90;;;8.70;99.90;;;;;;5015731;28;20212;-63
2022/01/18 13:10:38;;;;;;;1.10;1.10;;;8.80;99.90;;;;;;5018831;28;20311;-66
2022/01/18 13:13:08;;;;;;;1.00;1.00;;;8.90;99.90;;;;;;5017319;28;20205;-64
2022/01/18 13:26:57;;;;;;;1.00;1.00;;;9.00;99.90;;;;;;5001570;28;20644;-64
2022/01/18 13:29:28;;;;;;;1.20;1.20;;;9.10;99.90;;;;;;5017612;28;20211;-64
2022/01/18 13:32:04;;;;;;;1.20;1.20;;;9.20;99.90;;;;;;5013767;28;20233;-63
2022/01/18 13:34:33;;;;;;;1.10;1.10;;;9.20;99.90;;;;;;5019170;28;20741;-64
2022/01/18 13:37:04;;;;;;;1.40;1.30;;;9.20;99.90;;;;;;5019377;28;20228;-65
2022/01/18 13:39:35;;;;;;;2.37;1.40;;;9.30;99.90;;;;;;5021537;28;20555;-64
2022/01/18 13:42:03;;;;;;;1.20;1.20;;;9.20;99.90;;;;;;5019615;28;20301;-62
2022/01/18 13:44:32;;;;;;;1.20;1.20;;;9.20;99.90;;;;;;5019607;28;20229;-66
2022/01/18 13:47:13;;;;;;;1.03;1.03;;;9.20;99.90;;;;;;5016830;28;20659;-65
2022/01/18 13:49:40;;;;;;;1.40;1.30;;;9.20;99.90;;;;;;5015514;28;20207;-65
2022/01/18 13:52:09;;;;;;;1.10;1.10;;;9.20;99.90;;;;;;5012486;28;20284;-65
2022/01/18 13:54:47;;;;;;;1.03;1.03;;;9.30;99.90;;;;;;5014574;28;20742;-64
2022/01/18 13:57:16;;;;;;;1.30;1.30;;;9.20;99.90;;;;;;5016663;28;20233;-65
2022/01/18 13:59:45;;;;;;;1.20;1.20;;;9.10;99.90;;;;;;5017705;28;20565;-66
2022/01/18 14:02:14;;;;;;;1.40;1.30;;;9.10;99.90;;;;;;5023548;28;20244;-66
2022/01/18 14:04:41;;;;;;;1.20;1.20;;;9.00;99.90;;;;;;5027760;28;20232;-64
2022/01/18 14:07:08;;;;;;;1.30;1.20;;;9.10;99.90;;;;;;5032676;28;20260;-65
2022/01/18 14:09:36;;;;;;;1.40;1.30;;;9.10;99.90;;;;;;5026191;28;20914;-64
2022/01/18 14:12:04;;;;;;;1.20;1.20;;;9.10;99.90;;;;;;5013090;28;20568;-64
2022/01/18 14:14:34;;;;;;;1.27;1.17;;;9.10;99.90;;;;;;5014982;28;20209;-64
2022/01/18 14:17:04;;;;;;;1.37;1.20;;;9.10;99.90;;;;;;5014082;28;20198;-64
2022/01/18 14:19:34;;;;;;;1.17;1.10;;;9.10;99.90;;;;;;5016257;28;20200;-64